createdAt,value
2018-03-14T00:01:51.326Z,4.70
2018-03-14T00:04:24.550Z,4.80
2018-03-14T00:06:57.496Z,4.80
2018-03-14T00:09:30.547Z,4.80
2018-03-14T00:12:03.263Z,4.80
2018-03-14T00:14:36.666Z,4.80
2018-03-14T00:17:09.572Z,4.80
2018-03-14T00:19:42.354Z,4.80
2018-03-14T00:22:27.306Z,4.80
2018-03-14T00:25:00.964Z,4.80
2018-03-14T00:27:33.955Z,4.70
2018-03-14T00:30:06.642Z,4.70
2018-03-14T00:32:39.190Z,4.80
2018-03-14T00:35:12.022Z,4.80
2018-03-14T00:37:44.679Z,4.80
2018-03-14T00:40:17.395Z,4.80
2018-03-14T00:42:50.151Z,4.80
2018-03-14T00:45:22.926Z,4.80
2018-03-14T00:47:56.131Z,4.80
2018-03-14T00:50:28.891Z,4.80
2018-03-14T00:53:01.771Z,4.80
2018-03-14T00:55:34.224Z,4.80
2018-03-14T00:58:06.992Z,4.80
2018-03-14T01:00:40.416Z,4.80
2018-03-14T01:03:13.340Z,4.80
2018-03-14T01:05:46.369Z,4.80
2018-03-14T01:08:20.029Z,4.80
2018-03-14T01:10:52.926Z,4.80
2018-03-14T01:13:26.208Z,4.80
2018-03-14T01:15:58.827Z,4.80
2018-03-14T01:18:31.299Z,4.80
2018-03-14T01:21:04.123Z,4.80
2018-03-14T01:23:37.026Z,4.80
2018-03-14T01:26:10.635Z,4.80
2018-03-14T01:28:43.414Z,4.80
2018-03-14T01:31:17.532Z,4.80
2018-03-14T01:33:51.120Z,4.80
2018-03-14T01:36:24.071Z,4.80
2018-03-14T01:38:56.513Z,4.80
2018-03-14T01:41:30.401Z,4.80
2018-03-14T01:44:03.311Z,4.80
2018-03-14T01:46:35.971Z,4.80
2018-03-14T01:49:08.837Z,4.90
2018-03-14T01:51:41.653Z,4.90
2018-03-14T01:54:14.811Z,4.80
2018-03-14T01:56:48.170Z,4.80
2018-03-14T01:59:20.826Z,4.80
2018-03-14T02:01:53.874Z,4.80
2018-03-14T02:04:26.781Z,4.80
2018-03-14T02:07:00.132Z,4.80
2018-03-14T02:09:32.831Z,4.70
2018-03-14T02:12:05.724Z,4.80
2018-03-14T02:14:38.469Z,4.80
2018-03-14T02:17:11.345Z,4.70
2018-03-14T02:19:44.211Z,4.70
2018-03-14T02:22:16.990Z,4.70
2018-03-14T02:24:50.138Z,4.70
2018-03-14T02:27:22.715Z,4.70
2018-03-14T02:29:56.775Z,4.80
2018-03-14T02:32:29.386Z,4.70
2018-03-14T02:35:03.146Z,4.70
2018-03-14T02:37:36.511Z,4.70
2018-03-14T02:40:09.600Z,4.70
2018-03-14T02:42:43.100Z,4.70
2018-03-14T02:45:15.742Z,4.70
2018-03-14T02:47:48.126Z,4.70
2018-03-14T02:50:20.841Z,4.70
2018-03-14T02:52:53.752Z,4.80
2018-03-14T02:55:27.345Z,4.70
2018-03-14T02:58:00.310Z,4.70
2018-03-14T03:00:33.155Z,4.70
2018-03-14T03:03:05.881Z,4.70
2018-03-14T03:05:38.754Z,4.70
2018-03-14T03:08:11.507Z,4.70
2018-03-14T03:10:44.844Z,4.70
2018-03-14T03:13:18.860Z,4.70
2018-03-14T03:15:51.445Z,4.60
2018-03-14T03:18:25.213Z,4.70
2018-03-14T03:20:58.101Z,4.70
2018-03-14T03:23:30.820Z,4.70
2018-03-14T03:26:03.564Z,4.70
2018-03-14T03:28:36.192Z,4.70
2018-03-14T03:31:09.226Z,4.70
2018-03-14T03:33:42.380Z,4.70
2018-03-14T03:36:15.101Z,4.60
2018-03-14T03:38:47.877Z,4.70
2018-03-14T03:41:20.665Z,4.70
2018-03-14T03:43:53.547Z,4.70
2018-03-14T03:46:26.656Z,4.70
2018-03-14T03:48:59.170Z,4.70
2018-03-14T03:51:32.811Z,4.70
2018-03-14T03:54:06.336Z,4.70
2018-03-14T03:56:39.122Z,4.70
2018-03-14T03:59:12.308Z,4.70
2018-03-14T04:01:44.936Z,4.70
2018-03-14T04:04:17.949Z,4.70
2018-03-14T04:06:50.935Z,4.70
2018-03-14T04:09:24.029Z,4.70
2018-03-14T04:11:56.810Z,4.70
2018-03-14T04:14:30.086Z,4.70
2018-03-14T04:17:02.881Z,4.60
2018-03-14T04:19:35.766Z,4.60
2018-03-14T04:22:08.526Z,4.60
2018-03-14T04:24:41.040Z,4.70
2018-03-14T04:27:13.645Z,4.60
2018-03-14T04:29:46.232Z,4.60
2018-03-14T04:32:18.854Z,4.60
2018-03-14T04:34:51.506Z,4.60
2018-03-14T04:37:24.137Z,4.60
2018-03-14T04:39:56.882Z,4.60
2018-03-14T04:42:29.543Z,4.60
2018-03-14T04:45:02.504Z,4.70
2018-03-14T04:47:35.854Z,4.60
2018-03-14T04:50:08.617Z,4.60
2018-03-14T04:52:42.337Z,4.60
2018-03-14T04:55:15.124Z,4.60
2018-03-14T04:57:48.290Z,4.60
2018-03-14T05:00:21.296Z,4.60
2018-03-14T05:02:54.393Z,4.60
2018-03-14T05:05:27.925Z,4.60
2018-03-14T05:08:00.871Z,4.50
2018-03-14T05:10:33.586Z,4.50
2018-03-14T05:13:06.437Z,4.50
2018-03-14T05:15:39.014Z,4.50
2018-03-14T05:18:11.802Z,4.50
2018-03-14T05:20:44.468Z,4.50
2018-03-14T05:23:17.364Z,4.50
2018-03-14T05:25:50.141Z,4.40
2018-03-14T05:28:22.921Z,4.40
2018-03-14T05:30:55.664Z,4.40
2018-03-14T05:33:28.484Z,4.40
2018-03-14T05:36:00.944Z,4.40
2018-03-14T05:38:34.766Z,4.40
2018-03-14T05:41:07.630Z,4.40
2018-03-14T05:43:40.376Z,4.40
2018-03-14T05:46:13.621Z,4.40
2018-03-14T05:48:48.007Z,4.40
2018-03-14T05:51:20.744Z,4.40
2018-03-14T05:53:54.023Z,4.40
2018-03-14T05:56:26.901Z,4.40
2018-03-14T05:58:59.756Z,4.40
2018-03-14T06:01:34.035Z,4.40
2018-03-14T06:04:08.525Z,4.40
2018-03-14T06:06:41.509Z,4.40
2018-03-14T06:09:15.112Z,4.40
2018-03-14T06:11:47.992Z,4.40
2018-03-14T06:14:20.674Z,4.40
2018-03-14T06:16:53.630Z,4.40
2018-03-14T06:19:26.305Z,4.40
2018-03-14T06:22:00.207Z,4.50
2018-03-14T06:24:33.446Z,4.50
2018-03-14T06:27:07.307Z,4.60
2018-03-14T06:29:41.012Z,4.50
2018-03-14T06:32:13.696Z,4.60
2018-03-14T06:34:47.640Z,4.60
2018-03-14T06:37:21.470Z,4.70
2018-03-14T06:39:54.042Z,4.70
2018-03-14T06:42:27.417Z,4.70
2018-03-14T06:45:00.401Z,4.70
2018-03-14T06:47:33.050Z,4.80
2018-03-14T06:50:05.888Z,4.80
2018-03-14T06:52:38.796Z,4.80
2018-03-14T06:55:11.431Z,4.90
2018-03-14T06:57:44.313Z,4.90
2018-03-14T07:00:29.932Z,5.00
2018-03-14T07:03:15.107Z,5.00
2018-03-14T07:06:00.749Z,5.20
2018-03-14T07:08:33.647Z,5.10
2018-03-14T07:11:07.445Z,5.20
2018-03-14T07:13:40.224Z,5.20
2018-03-14T07:16:12.950Z,5.20
2018-03-14T07:18:45.351Z,5.30
2018-03-14T07:21:18.043Z,5.30
2018-03-14T07:23:50.891Z,5.30
2018-03-14T07:26:24.508Z,5.40
2018-03-14T07:28:57.127Z,5.40
2018-03-14T07:31:30.110Z,5.40
2018-03-14T07:34:02.787Z,5.50
2018-03-14T07:36:35.435Z,5.40
2018-03-14T07:39:09.169Z,5.40
2018-03-14T07:41:41.722Z,5.50
2018-03-14T07:44:14.410Z,5.60
2018-03-14T07:46:47.135Z,5.60
2018-03-14T07:49:20.711Z,5.60
2018-03-14T07:51:54.057Z,5.70
2018-03-14T07:54:26.781Z,5.60
2018-03-14T07:56:59.638Z,5.70
2018-03-14T07:59:32.600Z,5.70
2018-03-14T08:02:05.430Z,5.70
2018-03-14T08:04:39.342Z,5.80
2018-03-14T08:07:11.992Z,5.80
2018-03-14T08:09:44.755Z,5.70
2018-03-14T08:12:17.319Z,5.80
2018-03-14T08:14:50.106Z,5.80
2018-03-14T08:17:22.802Z,5.80
2018-03-14T08:19:56.367Z,5.90
2018-03-14T08:22:29.165Z,5.90
2018-03-14T08:25:02.108Z,6.00
2018-03-14T08:27:36.986Z,6.00
2018-03-14T08:30:09.662Z,6.00
2018-03-14T08:32:42.606Z,6.00
2018-03-14T08:35:15.302Z,6.00
2018-03-14T08:37:48.221Z,5.90
2018-03-14T08:40:20.852Z,5.70
2018-03-14T08:42:54.457Z,5.40
2018-03-14T08:45:27.441Z,5.40
2018-03-14T08:48:00.030Z,5.40
2018-03-14T08:50:32.772Z,5.40
2018-03-14T08:53:05.891Z,5.60
2018-03-14T08:55:39.590Z,5.70
2018-03-14T08:58:12.541Z,5.80
2018-03-14T09:00:45.214Z,5.90
2018-03-14T09:03:18.651Z,6.00
2018-03-14T09:05:51.453Z,6.00
2018-03-14T09:08:24.059Z,6.00
2018-03-14T09:10:57.411Z,6.10
2018-03-14T09:13:30.393Z,6.10
2018-03-14T09:16:03.076Z,6.10
2018-03-14T09:18:36.065Z,6.10
2018-03-14T09:21:09.176Z,6.00
2018-03-14T09:23:42.991Z,6.00
2018-03-14T09:26:15.737Z,6.00
2018-03-14T09:28:48.538Z,6.20
2018-03-14T09:31:21.507Z,6.40
2018-03-14T09:33:54.311Z,6.50
2018-03-14T09:36:27.956Z,6.50
2018-03-14T09:39:00.570Z,6.50
2018-03-14T09:41:33.452Z,6.50
2018-03-14T09:44:06.452Z,6.40
2018-03-14T09:46:39.233Z,6.30
2018-03-14T09:49:12.027Z,6.30
2018-03-14T09:51:44.728Z,6.30
2018-03-14T09:54:17.450Z,6.30
2018-03-14T09:56:50.286Z,6.20
2018-03-14T09:59:23.092Z,6.30
2018-03-14T10:01:55.847Z,6.30
2018-03-14T10:04:28.687Z,6.40
2018-03-14T10:07:02.346Z,6.30
2018-03-14T10:09:35.386Z,6.30
2018-03-14T10:12:08.271Z,6.30
2018-03-14T10:14:42.003Z,6.60
2018-03-14T10:17:14.858Z,6.60
2018-03-14T10:19:47.559Z,6.80
2018-03-14T10:22:21.754Z,6.90
2018-03-14T10:24:54.426Z,7.10
2018-03-14T10:27:27.972Z,7.20
2018-03-14T10:30:00.736Z,7.20
2018-03-14T10:32:33.355Z,7.10
2018-03-14T10:35:06.316Z,7.10
2018-03-14T10:37:38.826Z,7.10
2018-03-14T10:40:11.636Z,7.00
2018-03-14T10:42:44.277Z,7.00
2018-03-14T10:45:17.913Z,7.20
2018-03-14T10:47:51.018Z,7.20
2018-03-14T10:50:25.337Z,7.10
2018-03-14T10:52:59.436Z,7.10
2018-03-14T10:55:33.035Z,7.20
2018-03-14T10:58:05.736Z,7.20
2018-03-14T11:00:44.562Z,7.30
2018-03-14T11:03:18.154Z,7.40
2018-03-14T11:05:50.632Z,7.50
2018-03-14T11:08:23.320Z,7.60
2018-03-14T11:10:56.025Z,7.70
2018-03-14T11:13:29.353Z,7.80
2018-03-14T11:16:02.619Z,7.80
2018-03-14T11:18:35.201Z,7.80
2018-03-14T11:21:07.978Z,7.70
2018-03-14T11:23:40.537Z,7.70
2018-03-14T11:26:14.098Z,7.90
2018-03-14T11:28:48.457Z,8.20
2018-03-14T11:31:21.403Z,8.20
2018-03-14T11:33:54.285Z,8.30
2018-03-14T11:36:27.887Z,8.40
2018-03-14T11:39:00.868Z,8.40
2018-03-14T11:41:34.781Z,8.60
2018-03-14T11:44:08.293Z,8.50
2018-03-14T11:46:41.190Z,8.60
2018-03-14T11:49:15.442Z,8.60
2018-03-14T11:51:49.036Z,8.60
2018-03-14T11:54:21.895Z,8.40
2018-03-14T11:56:54.866Z,8.50
2018-03-14T11:59:27.794Z,8.50
2018-03-14T12:02:01.445Z,8.70
2018-03-14T12:04:34.852Z,8.70
2018-03-14T12:07:07.925Z,8.80
2018-03-14T12:09:41.286Z,8.80
2018-03-14T12:12:14.415Z,9.00
2018-03-14T12:14:48.723Z,9.20
2018-03-14T12:17:21.751Z,9.10
2018-03-14T12:19:54.210Z,9.30
2018-03-14T12:22:30.758Z,9.40
2018-03-14T12:25:04.246Z,9.40
2018-03-14T12:27:37.858Z,9.40
2018-03-14T12:30:10.577Z,9.40
2018-03-14T12:32:44.015Z,9.40
2018-03-14T12:35:18.606Z,9.50
2018-03-14T12:37:52.699Z,9.50
2018-03-14T12:40:27.021Z,9.40
2018-03-14T12:42:59.983Z,9.50
2018-03-14T12:45:32.861Z,9.40
2018-03-14T12:48:15.755Z,9.60
2018-03-14T12:50:51.017Z,9.50
2018-03-14T12:53:25.136Z,9.40
2018-03-14T12:56:00.709Z,9.40
2018-03-14T12:58:34.672Z,9.10
2018-03-14T13:01:09.581Z,9.10
2018-03-14T13:03:43.640Z,9.00
2018-03-14T13:06:17.556Z,9.00
2018-03-14T13:08:52.137Z,9.00
2018-03-14T13:11:27.833Z,8.90
2018-03-14T13:14:02.057Z,8.90
2018-03-14T13:16:35.012Z,8.80
2018-03-14T13:19:08.452Z,9.00
2018-03-14T13:21:42.216Z,8.90
2018-03-14T13:24:15.029Z,8.80
2018-03-14T13:26:47.988Z,8.80
2018-03-14T13:29:20.971Z,8.70
2018-03-14T13:31:54.112Z,8.80
2018-03-14T13:34:26.853Z,8.80
2018-03-14T13:36:59.488Z,8.80
2018-03-14T13:39:32.817Z,8.90
2018-03-14T13:42:05.606Z,9.10
2018-03-14T13:44:38.896Z,9.20
2018-03-14T13:47:12.290Z,9.50
2018-03-14T13:49:46.238Z,9.60
2018-03-14T13:52:18.876Z,9.60
2018-03-14T13:54:51.381Z,9.70
2018-03-14T13:57:23.971Z,9.60
2018-03-14T13:59:56.967Z,9.60
2018-03-14T14:02:30.337Z,9.80
2018-03-14T14:05:04.094Z,9.80
2018-03-14T14:07:37.554Z,10.40
2018-03-14T14:10:11.322Z,10.90
2018-03-14T14:12:44.213Z,10.90
2018-03-14T14:15:17.861Z,12.40
2018-03-14T14:17:51.507Z,13.50
2018-03-14T14:20:24.293Z,13.40
2018-03-14T14:22:57.223Z,13.70
2018-03-14T14:25:29.951Z,13.60
2018-03-14T14:28:02.634Z,13.30
2018-03-14T14:30:35.468Z,13.10
2018-03-14T14:33:08.227Z,13.30
2018-03-14T14:35:41.301Z,13.60
2018-03-14T14:38:13.906Z,13.90
2018-03-14T14:40:46.957Z,14.00
2018-03-14T14:43:20.616Z,14.60
2018-03-14T14:45:54.389Z,14.60
2018-03-14T14:48:27.619Z,15.00
2018-03-14T14:51:00.539Z,15.00
2018-03-14T14:53:33.576Z,14.80
2018-03-14T14:56:05.947Z,14.60
2018-03-14T14:58:39.323Z,14.70
2018-03-14T15:01:12.178Z,14.30
2018-03-14T15:03:45.167Z,14.20
2018-03-14T15:06:18.749Z,14.40
2018-03-14T15:08:51.262Z,14.40
2018-03-14T15:11:24.654Z,14.10
2018-03-14T15:13:58.259Z,14.00
2018-03-14T15:16:31.019Z,14.00
2018-03-14T15:19:03.691Z,13.90
2018-03-14T15:21:36.788Z,14.20
2018-03-14T15:24:09.693Z,14.50
2018-03-14T15:26:42.728Z,14.60
2018-03-14T15:29:15.984Z,14.40
2018-03-14T15:31:48.541Z,14.00
2018-03-14T15:34:21.593Z,14.30
2018-03-14T15:36:54.484Z,14.00
2018-03-14T15:39:27.019Z,13.70
2018-03-14T15:42:00.198Z,13.40
2018-03-14T15:44:33.155Z,13.20
2018-03-14T15:47:05.803Z,13.10
2018-03-14T15:49:38.594Z,13.10
2018-03-14T15:52:12.031Z,13.50
2018-03-14T15:54:45.727Z,13.60
2018-03-14T15:57:18.599Z,13.60
2018-03-14T15:59:51.486Z,14.00
2018-03-14T16:02:24.207Z,14.30
2018-03-14T16:04:57.058Z,14.30
2018-03-14T16:07:29.832Z,14.30
2018-03-14T16:10:02.718Z,14.80
2018-03-14T16:12:36.264Z,15.10
2018-03-14T16:15:09.840Z,15.30
2018-03-14T16:17:42.599Z,15.30
2018-03-14T16:20:15.699Z,15.80
2018-03-14T16:22:48.203Z,16.20
2018-03-14T16:25:20.915Z,16.30
2018-03-14T16:27:54.037Z,15.20
2018-03-14T16:30:26.602Z,14.10
2018-03-14T16:32:59.430Z,13.00
2018-03-14T16:35:32.378Z,11.80
2018-03-14T16:38:04.953Z,10.90
2018-03-14T16:40:37.668Z,10.20
2018-03-14T16:43:10.569Z,9.60
2018-03-14T16:45:43.405Z,9.20
2018-03-14T16:48:16.005Z,8.90
2018-03-14T16:50:48.743Z,8.50
2018-03-14T16:53:21.854Z,8.10
2018-03-14T16:55:54.734Z,7.70
2018-03-14T16:58:27.725Z,7.50
2018-03-14T17:01:01.855Z,7.20
2018-03-14T17:03:35.137Z,7.10
2018-03-14T17:06:08.019Z,7.10
2018-03-14T17:08:42.008Z,6.80
2018-03-14T17:11:14.804Z,6.80
2018-03-14T17:13:48.157Z,6.60
2018-03-14T17:16:20.948Z,6.60
2018-03-14T17:18:53.971Z,6.50
2018-03-14T17:21:27.464Z,6.30
2018-03-14T17:24:00.387Z,6.30
2018-03-14T17:26:33.906Z,6.20
2018-03-14T17:29:06.403Z,6.10
2018-03-14T17:31:39.466Z,6.10
2018-03-14T17:34:12.198Z,6.00
2018-03-14T17:36:44.697Z,5.90
2018-03-14T17:39:17.433Z,5.80
2018-03-14T17:41:50.386Z,5.80
2018-03-14T17:44:24.952Z,5.60
2018-03-14T17:46:57.859Z,5.60
2018-03-14T17:49:33.090Z,5.40
2018-03-14T17:52:07.043Z,5.40
2018-03-14T17:54:39.783Z,5.40
2018-03-14T17:57:12.599Z,5.30
2018-03-14T17:59:46.164Z,5.10
2018-03-14T18:02:18.938Z,5.10
2018-03-14T18:04:51.780Z,5.10
2018-03-14T18:07:24.678Z,5.00
2018-03-14T18:09:57.223Z,4.90
2018-03-14T18:12:30.223Z,4.90
2018-03-14T18:15:03.681Z,4.70
2018-03-14T18:17:36.350Z,4.70
2018-03-14T18:20:09.978Z,4.70
2018-03-14T18:22:42.687Z,4.60
2018-03-14T18:25:15.348Z,4.60
2018-03-14T18:27:48.783Z,4.40
2018-03-14T18:30:22.437Z,4.40
2018-03-14T18:32:55.904Z,4.40
2018-03-14T18:35:29.213Z,4.30
2018-03-14T18:38:03.412Z,4.30
2018-03-14T18:40:36.366Z,4.20
2018-03-14T18:43:10.816Z,4.10
2018-03-14T18:45:44.837Z,4.00
2018-03-14T18:48:18.434Z,4.00
2018-03-14T18:50:51.576Z,4.00
2018-03-14T18:53:24.387Z,3.90
2018-03-14T18:55:57.942Z,3.80
2018-03-14T18:58:32.128Z,3.80
2018-03-14T19:01:05.267Z,3.80
2018-03-14T19:03:38.404Z,3.80
2018-03-14T19:06:12.247Z,3.70
2018-03-14T19:08:45.816Z,3.70
2018-03-14T19:11:20.388Z,3.60
2018-03-14T19:13:54.139Z,3.60
2018-03-14T19:16:27.714Z,3.60
2018-03-14T19:19:00.762Z,3.50
2018-03-14T19:21:28.455Z,3.50
2018-03-14T19:23:56.184Z,3.40
2018-03-14T19:26:22.845Z,3.40
2018-03-14T19:28:50.844Z,3.40
2018-03-14T19:31:17.468Z,3.40
2018-03-14T19:33:44.300Z,3.30
2018-03-14T19:36:11.217Z,3.30
2018-03-14T19:38:38.386Z,3.30
2018-03-14T19:41:05.151Z,3.30
2018-03-14T19:43:33.760Z,3.30
2018-03-14T19:46:00.715Z,3.20
2018-03-14T19:48:27.796Z,3.20
2018-03-14T19:50:55.213Z,3.20
2018-03-14T19:53:22.834Z,3.20
2018-03-14T19:55:50.641Z,3.10
2018-03-14T19:58:17.569Z,3.10
2018-03-14T20:00:44.404Z,3.10
2018-03-14T20:03:11.686Z,3.10
2018-03-14T20:05:39.064Z,3.10
2018-03-14T20:08:08.446Z,3.10
2018-03-14T20:10:35.767Z,3.00
2018-03-14T20:13:03.564Z,3.00
2018-03-14T20:15:31.106Z,3.00
2018-03-14T20:18:05.556Z,3.00
2018-03-14T20:20:38.483Z,3.10
2018-03-14T20:23:14.077Z,3.10
2018-03-14T20:25:47.568Z,3.10
2018-03-14T20:28:22.109Z,3.10
2018-03-14T20:30:56.430Z,3.00
2018-03-14T20:33:29.751Z,3.10
2018-03-14T20:36:03.726Z,3.10
2018-03-14T20:38:37.184Z,3.10
2018-03-14T20:41:10.644Z,3.20
2018-03-14T20:43:43.799Z,3.30
2018-03-14T20:46:16.743Z,3.30
2018-03-14T20:48:50.736Z,3.40
2018-03-14T20:51:25.024Z,3.40
2018-03-14T20:53:58.309Z,3.40
2018-03-14T20:56:31.599Z,3.40
2018-03-14T20:59:04.660Z,3.40
2018-03-14T21:01:38.834Z,3.40
2018-03-14T21:04:12.500Z,3.40
2018-03-14T21:06:45.375Z,3.40
2018-03-14T21:09:19.614Z,3.40
2018-03-14T21:11:52.823Z,3.40
2018-03-14T21:14:26.233Z,3.40
2018-03-14T21:16:59.068Z,3.40
2018-03-14T21:19:31.913Z,3.40
2018-03-14T21:22:06.194Z,3.40
2018-03-14T21:24:39.103Z,3.40
2018-03-14T21:27:11.857Z,3.40
2018-03-14T21:29:46.668Z,3.40
2018-03-14T21:32:20.504Z,3.40
2018-03-14T21:34:53.513Z,3.40
2018-03-14T21:37:26.179Z,3.40
2018-03-14T21:39:59.753Z,3.30
2018-03-14T21:42:33.952Z,3.30
2018-03-14T21:45:06.661Z,3.30
2018-03-14T21:47:41.910Z,3.30
2018-03-14T21:50:15.271Z,3.20
2018-03-14T21:52:48.093Z,3.20
2018-03-14T21:55:33.939Z,3.20
2018-03-14T21:58:07.246Z,3.20
2018-03-14T22:00:40.583Z,3.20
2018-03-14T22:03:13.559Z,3.10
2018-03-14T22:05:47.993Z,3.10
2018-03-14T22:08:20.845Z,3.10
2018-03-14T22:10:53.480Z,3.10
2018-03-14T22:13:28.323Z,3.10
2018-03-14T22:16:01.332Z,3.10
2018-03-14T22:18:33.921Z,3.10
2018-03-14T22:21:07.993Z,3.00
2018-03-14T22:23:40.683Z,3.00
2018-03-14T22:26:13.576Z,3.00
2018-03-14T22:28:47.930Z,3.10
2018-03-14T22:31:21.442Z,3.00
2018-03-14T22:33:54.684Z,3.00
2018-03-14T22:36:27.262Z,3.00
2018-03-14T22:39:01.085Z,3.00
2018-03-14T22:41:33.987Z,2.90
2018-03-14T22:44:07.037Z,3.00
2018-03-14T22:46:39.845Z,2.90
2018-03-14T22:49:12.562Z,2.90
2018-03-14T22:51:45.278Z,2.90
2018-03-14T22:54:19.009Z,3.00
2018-03-14T22:56:51.944Z,2.90
2018-03-14T22:59:24.649Z,3.00
2018-03-14T23:01:58.878Z,3.10
2018-03-14T23:04:31.849Z,3.00
2018-03-14T23:07:04.428Z,3.10
2018-03-14T23:09:37.185Z,3.10
2018-03-14T23:12:09.888Z,3.10
2018-03-14T23:14:43.084Z,3.10
2018-03-14T23:17:16.484Z,3.00
2018-03-14T23:19:49.160Z,3.10
2018-03-14T23:22:22.038Z,3.00
2018-03-14T23:24:54.820Z,3.00
2018-03-14T23:27:27.479Z,3.00
2018-03-14T23:30:01.242Z,3.00
2018-03-14T23:32:33.956Z,2.90
2018-03-14T23:35:06.502Z,2.90
2018-03-14T23:37:39.545Z,2.90
2018-03-14T23:40:12.396Z,2.90
2018-03-14T23:42:45.524Z,2.90
2018-03-14T23:45:18.048Z,2.90
2018-03-14T23:47:50.904Z,2.80
2018-03-14T23:50:25.300Z,2.80
2018-03-14T23:52:58.062Z,2.90
2018-03-14T23:55:31.783Z,2.90
2018-03-14T23:58:05.288Z,2.80
